WXM80 ListenWXM80 Stop

You find our weather info also at:

UK Metoffice

WeatherCloud

Weather Underground

Northeastern Weather Network

AWEKAS

Citizen Weather Observer Program (CWOP)

HAMweather, WeatherForYou, PWS Weather


Weather Underground History page Text

Daily Summary for May 5, 2017 Units:  Both    English   Metric
« Previous Day
Next Day »
Daily Weekly Monthly Yearly Custom
  High: Low: Average:
Temperature: 60.9 °F /  16.1 °C 49.7 °F /  9.8 °C 55 °F /  12.8 °C
Dew Point: 60.3 °F /  15.7 °C 43.2 °F /  6.2 °C 53.1 °F /  11.7 °C
Humidity: 98 % 77 % 93 %
Wind Speed: 10.4 mph /  16.7 km/h - 2.7 mph /  4.3 km/h
Wind Gust: 19.6 mph /  31.5 km/h - -
Wind:- - SE
Pressure: 30.10 in /  1019.2 hPa 29.51 in /  999.2 hPa -
Precipitation: 1.41 in /  35.81 mm    
Historical Graphs
 
 
Tabular Data for May 5, 2017
Time Temperature Dew Point Pressure Wind Wind Speed Wind Gust Humidity Rainfall Rate (Hourly)
00:04 50.2 °F /  10.1 °C 43.3 °F /  6.3 °C 30.10 in /  1019.2 hPa SE 0.2 mph /  0.3 km/h 1.2 mph /  1.9 km/h 77 % 0.00 in /  0 mm
00:09 50.2 °F /  10.1 °C 43.3 °F /  6.3 °C 30.10 in /  1019.2 hPa SE 0.5 mph /  0.8 km/h 1.2 mph /  1.9 km/h 77 % 0.00 in /  0 mm
00:14 50.1 °F /  10.1 °C 43.2 °F /  6.2 °C 30.09 in /  1018.8 hPa Calm   1.0 mph /  1.6 km/h 77 % 0.00 in /  0 mm
00:19 50.1 °F /  10.1 °C 43.2 °F /  6.2 °C 30.09 in /  1018.8 hPa Calm     77 % 0.00 in /  0 mm
00:24 50.1 °F /  10.1 °C 43.2 °F /  6.2 °C 30.09 in /  1018.8 hPa SE 0.1 mph /  0.2 km/h 1.2 mph /  1.9 km/h 77 % 0.00 in /  0 mm
00:29 50.1 °F /  10.1 °C 43.2 °F /  6.2 °C 30.09 in /  1018.8 hPa SE 0.3 mph /  0.5 km/h 1.2 mph /  1.9 km/h 77 % 0.00 in /  0 mm
00:34 50.1 °F /  10.1 °C 43.2 °F /  6.2 °C 30.09 in /  1018.8 hPa SE 0.7 mph /  1.1 km/h 1.2 mph /  1.9 km/h 77 % 0.00 in /  0 mm
00:39 50.1 °F /  10.1 °C 43.2 °F /  6.2 °C 30.09 in /  1018.8 hPa Calm   1.2 mph /  1.9 km/h 77 % 0.00 in /  0 mm
00:44 50.2 °F /  10.1 °C 43.6 °F /  6.4 °C 30.09 in /  1018.8 hPa Calm   1.2 mph /  1.9 km/h 78 % 0.00 in /  0 mm
00:49 50.2 °F /  10.1 °C 43.6 °F /  6.4 °C 30.09 in /  1018.8 hPa Calm   1.2 mph /  1.9 km/h 78 % 0.00 in /  0 mm
00:54 50.2 °F /  10.1 °C 43.6 °F /  6.4 °C 30.08 in /  1018.5 hPa SE 1.0 mph /  1.6 km/h 2.3 mph /  3.7 km/h 78 % 0.00 in /  0 mm
01:00 50.2 °F /  10.1 °C 43.6 °F /  6.4 °C 30.08 in /  1018.5 hPa ESE 0.6 mph /  1 km/h 3.5 mph /  5.6 km/h 78 % 0.00 in /  0 mm
01:05 50.2 °F /  10.1 °C 43.6 °F /  6.4 °C 30.08 in /  1018.5 hPa ESE 0.3 mph /  0.5 km/h 3.5 mph /  5.6 km/h 78 % 0.00 in /  0 mm
01:10 50.3 °F /  10.2 °C 43.7 °F /  6.5 °C 30.08 in /  1018.5 hPa ESE 0.5 mph /  0.8 km/h 3.5 mph /  5.6 km/h 78 % 0.00 in /  0 mm
01:15 50.3 °F /  10.2 °C 43.7 °F /  6.5 °C 30.08 in /  1018.5 hPa SSE 1.9 mph /  3.1 km/h 2.3 mph /  3.7 km/h 78 % 0.00 in /  0 mm
01:20 50.3 °F /  10.2 °C 43.7 °F /  6.5 °C 30.08 in /  1018.5 hPa SE 0.3 mph /  0.5 km/h 1.2 mph /  1.9 km/h 78 % 0.00 in /  0 mm
01:25 50.3 °F /  10.2 °C 44.0 °F /  6.7 °C 30.08 in /  1018.5 hPa Calm   1.2 mph /  1.9 km/h 79 % 0.00 in /  0 mm
01:30 50.3 °F /  10.2 °C 44.0 °F /  6.7 °C 30.08 in /  1018.5 hPa SE 0.8 mph /  1.3 km/h 2.3 mph /  3.7 km/h 79 % 0.00 in /  0 mm
01:35 50.3 °F /  10.2 °C 44.0 °F /  6.7 °C 30.08 in /  1018.5 hPa SE 0.2 mph /  0.3 km/h 1.2 mph /  1.9 km/h 79 % 0.00 in /  0 mm
01:40 50.3 °F /  10.2 °C 44.0 °F /  6.7 °C 30.08 in /  1018.5 hPa Calm     79 % 0.00 in /  0 mm
01:45 50.3 °F /  10.2 °C 44.4 °F /  6.9 °C 30.08 in /  1018.5 hPa Calm     80 % 0.00 in /  0 mm
01:50 50.3 °F /  10.2 °C 44.4 °F /  6.9 °C 30.08 in /  1018.5 hPa SE 0.2 mph /  0.3 km/h 1.2 mph /  1.9 km/h 80 % 0.00 in /  0 mm
01:55 50.4 °F /  10.2 °C 44.5 °F /  6.9 °C 30.07 in /  1018.2 hPa Calm   1.2 mph /  1.9 km/h 80 % 0.00 in /  0 mm
02:00 50.4 °F /  10.2 °C 44.5 °F /  6.9 °C 30.07 in /  1018.2 hPa Calm   1.2 mph /  1.9 km/h 80 % 0.00 in /  0 mm
02:05 50.4 °F /  10.2 °C 44.8 °F /  7.1 °C 30.07 in /  1018.2 hPa Calm     81 % 0.00 in /  0 mm
02:10 50.4 °F /  10.2 °C 44.8 °F /  7.1 °C 30.07 in /  1018.2 hPa Calm     81 % 0.00 in /  0 mm
02:15 50.4 °F /  10.2 °C 44.8 °F /  7.1 °C 30.06 in /  1017.8 hPa SE 0.2 mph /  0.3 km/h 1.2 mph /  1.9 km/h 81 % 0.00 in /  0 mm
02:20 50.5 °F /  10.3 °C 44.9 °F /  7.2 °C 30.06 in /  1017.8 hPa Calm     81 % 0.00 in /  0 mm
02:25 50.5 °F /  10.3 °C 45.2 °F /  7.3 °C 30.05 in /  1017.5 hPa SE 0.5 mph /  0.8 km/h 1.2 mph /  1.9 km/h 82 % 0.00 in /  0 mm
02:30 50.5 °F /  10.3 °C 45.2 °F /  7.3 °C 30.05 in /  1017.5 hPa SE 0.2 mph /  0.3 km/h 1.2 mph /  1.9 km/h 82 % 0.00 in /  0 mm
02:35 50.5 °F /  10.3 °C 45.5 °F /  7.5 °C 30.04 in /  1017.2 hPa ESE 0.1 mph /  0.2 km/h 1.2 mph /  1.9 km/h 83 % 0.00 in /  0 mm
02:40 50.5 °F /  10.3 °C 45.8 °F /  7.7 °C 30.03 in /  1016.8 hPa ESE 1.0 mph /  1.6 km/h 2.3 mph /  3.7 km/h 84 % 0.00 in /  0 mm
02:45 50.5 °F /  10.3 °C 45.8 °F /  7.7 °C 30.03 in /  1016.8 hPa East 1.9 mph /  3.1 km/h 3.5 mph /  5.6 km/h 84 % 0.00 in /  0 mm
02:50 50.5 °F /  10.3 °C 46.5 °F /  8.1 °C 30.02 in /  1016.5 hPa East 1.5 mph /  2.4 km/h 3.5 mph /  5.6 km/h 86 % 0.00 in /  0 mm
02:55 50.4 °F /  10.2 °C 46.7 °F /  8.2 °C 30.01 in /  1016.1 hPa East 2.0 mph /  3.2 km/h 3.5 mph /  5.6 km/h 87 % 0.01 in /  0.25 mm
03:00 50.3 °F /  10.2 °C 46.9 °F /  8.3 °C 30.01 in /  1016.1 hPa East 2.9 mph /  4.7 km/h 4.6 mph /  7.4 km/h 88 % 0.01 in /  0.25 mm
03:05 50.1 °F /  10.1 °C 46.7 °F /  8.2 °C 30.01 in /  1016.1 hPa East 2.3 mph /  3.7 km/h 3.5 mph /  5.6 km/h 88 % 0.01 in /  0.25 mm
03:10 50.1 °F /  10.1 °C 47.0 °F /  8.3 °C 30.01 in /  1016.1 hPa East 1.7 mph /  2.7 km/h 3.5 mph /  5.6 km/h 89 % 0.01 in /  0.25 mm
03:15 50.0 °F /  10 °C 46.9 °F /  8.3 °C 30.02 in /  1016.5 hPa ESE 2.5 mph /  4 km/h 3.5 mph /  5.6 km/h 89 % 0.01 in /  0.25 mm
03:20 49.9 °F /  9.9 °C 47.1 °F /  8.4 °C 30.02 in /  1016.5 hPa SE 1.8 mph /  2.9 km/h 5.8 mph /  9.3 km/h 90 % 0.01 in /  0.25 mm
03:25 49.8 °F /  9.9 °C 47.0 °F /  8.3 °C 30.02 in /  1016.5 hPa East 2.1 mph /  3.4 km/h 4.6 mph /  7.4 km/h 90 % 0.01 in /  0.25 mm
03:30 49.8 °F /  9.9 °C 47.0 °F /  8.3 °C 30.02 in /  1016.5 hPa ESE 2.4 mph /  3.9 km/h 3.5 mph /  5.6 km/h 90 % 0.01 in /  0.25 mm
03:35 49.7 °F /  9.8 °C 46.9 °F /  8.3 °C 30.01 in /  1016.1 hPa East 1.6 mph /  2.6 km/h 4.6 mph /  7.4 km/h 90 % 0.01 in /  0.25 mm
03:40 49.7 °F /  9.8 °C 47.2 °F /  8.4 °C 30.01 in /  1016.1 hPa East 1.9 mph /  3.1 km/h 3.5 mph /  5.6 km/h 91 % 0.01 in /  0.25 mm
03:45 49.7 °F /  9.8 °C 47.2 °F /  8.4 °C 30.00 in /  1015.8 hPa East 2.3 mph /  3.7 km/h 4.6 mph /  7.4 km/h 91 % 0.01 in /  0.25 mm
03:50 49.7 °F /  9.8 °C 47.2 °F /  8.4 °C 30.01 in /  1016.1 hPa ESE 1.1 mph /  1.8 km/h 3.5 mph /  5.6 km/h 91 % 0.01 in /  0.25 mm
03:55 49.7 °F /  9.8 °C 47.2 °F /  8.4 °C 30.01 in /  1016.1 hPa SE 1.2 mph /  1.9 km/h 4.6 mph /  7.4 km/h 91 % 0.00 in /  0 mm
04:00 49.7 °F /  9.8 °C 47.2 °F /  8.4 °C 30.00 in /  1015.8 hPa ESE 2.3 mph /  3.7 km/h 3.5 mph /  5.6 km/h 91 % 0.00 in /  0 mm
04:05 49.7 °F /  9.8 °C 47.2 °F /  8.4 °C 30.00 in /  1015.8 hPa ESE 1.0 mph /  1.6 km/h 2.3 mph /  3.7 km/h 91 % 0.00 in /  0 mm
04:10 49.7 °F /  9.8 °C 47.2 °F /  8.4 °C 30.00 in /  1015.8 hPa East 2.1 mph /  3.4 km/h 3.5 mph /  5.6 km/h 91 % 0.00 in /  0 mm
04:15 49.8 °F /  9.9 °C 47.3 °F /  8.5 °C 30.00 in /  1015.8 hPa East 1.7 mph /  2.7 km/h 3.5 mph /  5.6 km/h 91 % 0.00 in /  0 mm
04:20 49.8 °F /  9.9 °C 47.6 °F /  8.7 °C 29.99 in /  1015.5 hPa East 2.1 mph /  3.4 km/h 3.5 mph /  5.6 km/h 92 % 0.00 in /  0 mm
04:25 49.8 °F /  9.9 °C 47.6 °F /  8.7 °C 29.99 in /  1015.5 hPa East 0.7 mph /  1.1 km/h 3.5 mph /  5.6 km/h 92 % 0.00 in /  0 mm
04:30 49.8 °F /  9.9 °C 47.6 °F /  8.7 °C 29.99 in /  1015.5 hPa East 1.5 mph /  2.4 km/h 3.5 mph /  5.6 km/h 92 % 0.00 in /  0 mm
04:35 49.8 °F /  9.9 °C 47.6 °F /  8.7 °C 29.98 in /  1015.1 hPa East 2.5 mph /  4 km/h 3.5 mph /  5.6 km/h 92 % 0.00 in /  0 mm
04:40 49.8 °F /  9.9 °C 47.6 °F /  8.7 °C 29.97 in /  1014.8 hPa East 2.6 mph /  4.2 km/h 4.6 mph /  7.4 km/h 92 % 0.00 in /  0 mm
04:45 49.9 °F /  9.9 °C 47.7 °F /  8.7 °C 29.97 in /  1014.8 hPa East 2.8 mph /  4.5 km/h 5.8 mph /  9.3 km/h 92 % 0.00 in /  0 mm
04:50 49.9 °F /  9.9 °C 47.7 °F /  8.7 °C 29.97 in /  1014.8 hPa East 2.4 mph /  3.9 km/h 4.6 mph /  7.4 km/h 92 % 0.00 in /  0 mm
04:55 50.0 °F /  10 °C 48.1 °F /  8.9 °C 29.99 in /  1015.5 hPa East 1.0 mph /  1.6 km/h 2.3 mph /  3.7 km/h 93 % 0.00 in /  0 mm
05:01 50.0 °F /  10 °C 48.1 °F /  8.9 °C 29.98 in /  1015.1 hPa SE 1.9 mph /  3.1 km/h 4.0 mph /  6.4 km/h 93 % 0.00 in /  0 mm
05:06 50.0 °F /  10 °C 47.8 °F /  8.8 °C 29.99 in /  1015.5 hPa East 2.2 mph /  3.5 km/h 5.8 mph /  9.3 km/h 92 % 0.00 in /  0 mm
05:07 50.0 °F /  10 °C 47.8 °F /  8.8 °C 29.99 in /  1015.5 hPa East 1.8 mph /  2.9 km/h 3.5 mph /  5.6 km/h 92 % 0.00 in /  0 mm
05:12 50.0 °F /  10 °C 47.8 °F /  8.8 °C 29.97 in /  1014.8 hPa East 3.4 mph /  5.5 km/h 5.8 mph /  9.3 km/h 92 % 0.00 in /  0 mm
05:17 50.0 °F /  10 °C 47.8 °F /  8.8 °C 29.97 in /  1014.8 hPa ESE 0.9 mph /  1.4 km/h 2.3 mph /  3.7 km/h 92 % 0.00 in /  0 mm
05:22 50.1 °F /  10.1 °C 47.9 °F /  8.8 °C 29.97 in /  1014.8 hPa ESE 0.7 mph /  1.1 km/h 2.3 mph /  3.7 km/h 92 % 0.00 in /  0 mm
05:27 50.1 °F /  10.1 °C 47.9 °F /  8.8 °C 29.97 in /  1014.8 hPa ESE 1.7 mph /  2.7 km/h 3.5 mph /  5.6 km/h 92 % 0.00 in /  0 mm
05:32 50.1 °F /  10.1 °C 47.9 °F /  8.8 °C 29.97 in /  1014.8 hPa ESE 1.7 mph /  2.7 km/h 3.0 mph /  4.8 km/h 92 % 0.00 in /  0 mm
05:37 50.1 °F /  10.1 °C 47.9 °F /  8.8 °C 29.97 in /  1014.8 hPa ESE 0.7 mph /  1.1 km/h 3.5 mph /  5.6 km/h 92 % 0.00 in /  0 mm
05:42 50.2 °F /  10.1 °C 48.0 °F /  8.9 °C 29.97 in /  1014.8 hPa ESE 0.8 mph /  1.3 km/h 2.3 mph /  3.7 km/h 92 % 0.00 in /  0 mm
05:47 50.2 °F /  10.1 °C 48.0 °F /  8.9 °C 29.97 in /  1014.8 hPa ESE 0.7 mph /  1.1 km/h 2.0 mph /  3.2 km/h 92 % 0.00 in /  0 mm
05:52 50.3 °F /  10.2 °C 48.1 °F /  8.9 °C 29.96 in /  1014.4 hPa ESE 0.7 mph /  1.1 km/h 3.5 mph /  5.6 km/h 92 % 0.00 in /  0 mm
05:57 50.3 °F /  10.2 °C 48.1 °F /  8.9 °C 29.96 in /  1014.4 hPa ESE 2.0 mph /  3.2 km/h 3.5 mph /  5.6 km/h 92 % 0.00 in /  0 mm
06:03 50.4 °F /  10.2 °C 48.5 °F /  9.2 °C 29.96 in /  1014.4 hPa ESE 1.1 mph /  1.8 km/h 3.5 mph /  5.6 km/h 93 % 0.00 in /  0 mm
06:08 50.5 °F /  10.3 °C 48.6 °F /  9.2 °C 29.95 in /  1014.1 hPa East 2.5 mph /  4 km/h 3.0 mph /  4.8 km/h 93 % 0.00 in /  0 mm
06:13 50.6 °F /  10.3 °C 48.7 °F /  9.3 °C 29.95 in /  1014.1 hPa East 2.9 mph /  4.7 km/h 5.0 mph /  8 km/h 93 % 0.00 in /  0 mm
06:18 50.7 °F /  10.4 °C 48.7 °F /  9.3 °C 29.95 in /  1014.1 hPa East 2.1 mph /  3.4 km/h 3.5 mph /  5.6 km/h 93 % 0.00 in /  0 mm
06:23 50.8 °F /  10.4 °C 48.8 °F /  9.3 °C 29.95 in /  1014.1 hPa East 2.9 mph /  4.7 km/h 4.6 mph /  7.4 km/h 93 % 0.00 in /  0 mm
06:24 50.8 °F /  10.4 °C 48.8 °F /  9.3 °C 29.95 in /  1014.1 hPa East 2.0 mph /  3.2 km/h 3.5 mph /  5.6 km/h 93 % 0.00 in /  0 mm
06:29 50.8 °F /  10.4 °C 48.6 °F /  9.2 °C 29.95 in /  1014.1 hPa East 2.2 mph /  3.5 km/h 5.0 mph /  8 km/h 92 % 0.00 in /  0 mm
06:34 50.9 °F /  10.5 °C 48.7 °F /  9.3 °C 29.95 in /  1014.1 hPa East 3.1 mph /  5 km/h 4.6 mph /  7.4 km/h 92 % 0.00 in /  0 mm
06:39 51.0 °F /  10.6 °C 49.0 °F /  9.4 °C 29.95 in /  1014.1 hPa East 3.4 mph /  5.5 km/h 4.6 mph /  7.4 km/h 93 % 0.00 in /  0 mm
06:42 51.1 °F /  10.6 °C 49.1 °F /  9.5 °C 29.95 in /  1014.1 hPa East 2.5 mph /  4 km/h 5.8 mph /  9.3 km/h 93 % 0.00 in /  0 mm
06:47 51.1 °F /  10.6 °C 49.1 °F /  9.5 °C 29.95 in /  1014.1 hPa East 3.2 mph /  5.1 km/h 5.0 mph /  8 km/h 93 % 0.00 in /  0 mm
06:52 51.2 °F /  10.7 °C 49.2 °F /  9.6 °C 29.94 in /  1013.8 hPa East 2.7 mph /  4.3 km/h 5.0 mph /  8 km/h 93 % 0.00 in /  0 mm
06:57 51.2 °F /  10.7 °C 49.2 °F /  9.6 °C 29.94 in /  1013.8 hPa East 2.7 mph /  4.3 km/h 4.6 mph /  7.4 km/h 93 % 0.00 in /  0 mm
07:02 51.2 °F /  10.7 °C 49.0 °F /  9.4 °C 29.94 in /  1013.8 hPa ENE 2.6 mph /  4.2 km/h 4.0 mph /  6.4 km/h 92 % 0.00 in /  0 mm
07:07 51.3 °F /  10.7 °C 49.1 °F /  9.5 °C 29.94 in /  1013.8 hPa ENE 2.4 mph /  3.9 km/h 4.0 mph /  6.4 km/h 92 % 0.00 in /  0 mm
07:12 51.3 °F /  10.7 °C 49.1 °F /  9.5 °C 29.93 in /  1013.4 hPa East 3.8 mph /  6.1 km/h 5.8 mph /  9.3 km/h 92 % 0.00 in /  0 mm
07:17 51.4 °F /  10.8 °C 49.2 °F /  9.6 °C 29.93 in /  1013.4 hPa East 3.7 mph /  6 km/h 5.8 mph /  9.3 km/h 92 % 0.00 in /  0 mm
07:23 51.4 °F /  10.8 °C 49.2 °F /  9.6 °C 29.93 in /  1013.4 hPa East 3.4 mph /  5.5 km/h 6.0 mph /  9.7 km/h 92 % 0.00 in /  0 mm
07:28 51.4 °F /  10.8 °C 49.2 °F /  9.6 °C 29.93 in /  1013.4 hPa East 3.4 mph /  5.5 km/h 5.8 mph /  9.3 km/h 92 % 0.00 in /  0 mm
07:33 51.5 °F /  10.8 °C 49.3 °F /  9.6 °C 29.93 in /  1013.4 hPa East 4.2 mph /  6.8 km/h 6.9 mph /  11.1 km/h 92 % 0.00 in /  0 mm
07:38 51.5 °F /  10.8 °C 49.5 °F /  9.7 °C 29.93 in /  1013.4 hPa East 4.5 mph /  7.2 km/h 6.9 mph /  11.1 km/h 93 % 0.00 in /  0 mm
07:43 51.6 °F /  10.9 °C 49.6 °F /  9.8 °C 29.91 in /  1012.8 hPa East 4.4 mph /  7.1 km/h 6.0 mph /  9.7 km/h 93 % 0.00 in /  0 mm
07:48 51.7 °F /  10.9 °C 49.7 °F /  9.8 °C 29.91 in /  1012.8 hPa East 5.3 mph /  8.5 km/h 6.9 mph /  11.1 km/h 93 % 0.00 in /  0 mm
07:53 51.8 °F /  11 °C 49.8 °F /  9.9 °C 29.92 in /  1013.1 hPa East 4.5 mph /  7.2 km/h 6.9 mph /  11.1 km/h 93 % 0.00 in /  0 mm
07:58 51.9 °F /  11.1 °C 49.9 °F /  9.9 °C 29.91 in /  1012.8 hPa East 4.4 mph /  7.1 km/h 5.8 mph /  9.3 km/h 93 % 0.00 in /  0 mm
08:03 52.0 °F /  11.1 °C 50.0 °F /  10 °C 29.91 in /  1012.8 hPa East 4.1 mph /  6.6 km/h 6.0 mph /  9.7 km/h 93 % 0.00 in /  0 mm
08:08 52.1 °F /  11.2 °C 49.8 °F /  9.9 °C 29.91 in /  1012.8 hPa East 3.6 mph /  5.8 km/h 6.0 mph /  9.7 km/h 92 % 0.00 in /  0 mm
08:13 52.2 °F /  11.2 °C 49.9 °F /  9.9 °C 29.91 in /  1012.8 hPa East 3.7 mph /  6 km/h 5.8 mph /  9.3 km/h 92 % 0.00 in /  0 mm
08:18 52.4 °F /  11.3 °C 50.4 °F /  10.2 °C 29.90 in /  1012.4 hPa East 3.7 mph /  6 km/h 6.0 mph /  9.7 km/h 93 % 0.00 in /  0 mm
08:23 52.5 °F /  11.4 °C 50.2 °F /  10.1 °C 29.90 in /  1012.4 hPa East 3.7 mph /  6 km/h 6.0 mph /  9.7 km/h 92 % 0.00 in /  0 mm
08:28 52.6 °F /  11.4 °C 50.3 °F /  10.2 °C 29.89 in /  1012.1 hPa East 3.3 mph /  5.3 km/h 5.8 mph /  9.3 km/h 92 % 0.00 in /  0 mm
08:33 52.7 °F /  11.5 °C 50.4 °F /  10.2 °C 29.89 in /  1012.1 hPa East 3.8 mph /  6.1 km/h 6.0 mph /  9.7 km/h 92 % 0.00 in /  0 mm
08:34 52.8 °F /  11.6 °C 50.5 °F /  10.3 °C 29.89 in /  1012.1 hPa East 4.0 mph /  6.4 km/h 5.8 mph /  9.3 km/h 92 % 0.00 in /  0 mm
08:39 52.9 °F /  11.6 °C 50.6 °F /  10.3 °C 29.89 in /  1012.1 hPa East 4.6 mph /  7.4 km/h 6.9 mph /  11.1 km/h 92 % 0.00 in /  0 mm
08:44 53.0 °F /  11.7 °C 50.4 °F /  10.2 °C 29.89 in /  1012.1 hPa ENE 4.5 mph /  7.2 km/h 7.0 mph /  11.3 km/h 91 % 0.00 in /  0 mm
08:49 53.2 °F /  11.8 °C 50.6 °F /  10.3 °C 29.88 in /  1011.7 hPa East 2.6 mph /  4.2 km/h 5.0 mph /  8 km/h 91 % 0.00 in /  0 mm
08:54 53.5 °F /  11.9 °C 51.2 °F /  10.7 °C 29.88 in /  1011.7 hPa East 3.1 mph /  5 km/h 5.8 mph /  9.3 km/h 92 % 0.00 in /  0 mm
08:59 53.7 °F /  12.1 °C 51.1 °F /  10.6 °C 29.88 in /  1011.7 hPa East 4.9 mph /  7.9 km/h 6.0 mph /  9.7 km/h 91 % 0.00 in /  0 mm
09:04 53.9 °F /  12.2 °C 51.3 °F /  10.7 °C 29.87 in /  1011.4 hPa ESE 3.8 mph /  6.1 km/h 5.8 mph /  9.3 km/h 91 % 0.00 in /  0 mm
09:10 54.1 °F /  12.3 °C 51.5 °F /  10.8 °C 29.86 in /  1011.1 hPa East 4.4 mph /  7.1 km/h 6.0 mph /  9.7 km/h 91 % 0.00 in /  0 mm
09:15 54.3 °F /  12.4 °C 51.7 °F /  10.9 °C 29.85 in /  1010.7 hPa East 3.0 mph /  4.8 km/h 6.9 mph /  11.1 km/h 91 % 0.00 in /  0 mm
09:20 54.5 °F /  12.5 °C 51.9 °F /  11.1 °C 29.85 in /  1010.7 hPa East 2.7 mph /  4.3 km/h 5.0 mph /  8 km/h 91 % 0.00 in /  0 mm
09:25 54.6 °F /  12.6 °C 52.0 °F /  11.1 °C 29.85 in /  1010.7 hPa East 4.4 mph /  7.1 km/h 7.0 mph /  11.3 km/h 91 % 0.00 in /  0 mm
09:30 55.1 °F /  12.8 °C 52.5 °F /  11.4 °C 29.85 in /  1010.7 hPa East 3.6 mph /  5.8 km/h 5.8 mph /  9.3 km/h 91 % 0.00 in /  0 mm
09:35 55.4 °F /  13 °C 52.8 °F /  11.6 °C 29.84 in /  1010.4 hPa East 4.0 mph /  6.4 km/h 5.8 mph /  9.3 km/h 91 % 0.00 in /  0 mm
09:40 55.7 °F /  13.2 °C 52.8 °F /  11.6 °C 29.83 in /  1010 hPa East 3.6 mph /  5.8 km/h 7.0 mph /  11.3 km/h 90 % 0.00 in /  0 mm
09:45 56.0 °F /  13.3 °C 53.1 °F /  11.7 °C 29.83 in /  1010 hPa East 5.7 mph /  9.2 km/h 8.1 mph /  13 km/h 90 % 0.00 in /  0 mm
09:50 56.5 °F /  13.6 °C 53.6 °F /  12 °C 29.81 in /  1009.4 hPa East 4.8 mph /  7.7 km/h 7.0 mph /  11.3 km/h 90 % 0.00 in /  0 mm
09:55 56.8 °F /  13.8 °C 53.6 °F /  12 °C 29.81 in /  1009.4 hPa East 5.8 mph /  9.3 km/h 8.1 mph /  13 km/h 89 % 0.00 in /  0 mm
10:00 57.0 °F /  13.9 °C 53.2 °F /  11.8 °C 29.81 in /  1009.4 hPa ENE 4.8 mph /  7.7 km/h 8.1 mph /  13 km/h 87 % 0.00 in /  0 mm
10:05 56.9 °F /  13.8 °C 53.1 °F /  11.7 °C 29.81 in /  1009.4 hPa East 5.1 mph /  8.2 km/h 6.9 mph /  11.1 km/h 87 % 0.00 in /  0 mm
10:10 56.9 °F /  13.8 °C 53.1 °F /  11.7 °C 29.81 in /  1009.4 hPa East 3.6 mph /  5.8 km/h 4.6 mph /  7.4 km/h 87 % 0.00 in /  0 mm
10:15 56.8 °F /  13.8 °C 53.0 °F /  11.7 °C 29.80 in /  1009 hPa ESE 4.0 mph /  6.4 km/h 9.2 mph /  14.8 km/h 87 % 0.00 in /  0 mm
10:20 56.9 °F /  13.8 °C 53.1 °F /  11.7 °C 29.79 in /  1008.7 hPa East 5.2 mph /  8.4 km/h 8.1 mph /  13 km/h 87 % 0.00 in /  0 mm
10:25 56.9 °F /  13.8 °C 53.1 °F /  11.7 °C 29.80 in /  1009 hPa East 3.5 mph /  5.6 km/h 4.6 mph /  7.4 km/h 87 % 0.00 in /  0 mm
10:30 56.9 °F /  13.8 °C 53.1 °F /  11.7 °C 29.80 in /  1009 hPa ESE 2.5 mph /  4 km/h 3.5 mph /  5.6 km/h 87 % 0.00 in /  0 mm
10:35 56.8 °F /  13.8 °C 53.0 °F /  11.7 °C 29.80 in /  1009 hPa East 4.9 mph /  7.9 km/h 6.9 mph /  11.1 km/h 87 % 0.01 in /  0.25 mm
10:40 56.8 °F /  13.8 °C 53.0 °F /  11.7 °C 29.80 in /  1009 hPa East 2.1 mph /  3.4 km/h 6.0 mph /  9.7 km/h 87 % 0.01 in /  0.25 mm
10:45 56.8 °F /  13.8 °C 53.3 °F /  11.8 °C 29.80 in /  1009 hPa East 5.0 mph /  8 km/h 9.0 mph /  14.5 km/h 88 % 0.01 in /  0.25 mm
10:50 56.7 °F /  13.7 °C 53.5 °F /  11.9 °C 29.80 in /  1009 hPa ESE 3.6 mph /  5.8 km/h 6.9 mph /  11.1 km/h 89 % 0.01 in /  0.25 mm
10:55 56.5 °F /  13.6 °C 53.6 °F /  12 °C 29.79 in /  1008.7 hPa East 2.5 mph /  4 km/h 4.6 mph /  7.4 km/h 90 % 0.02 in /  0.51 mm
11:00 56.3 °F /  13.5 °C 53.7 °F /  12.1 °C 29.78 in /  1008.4 hPa East 5.5 mph /  8.9 km/h 11.5 mph /  18.5 km/h 91 % 0.03 in /  0.76 mm
11:06 56.0 °F /  13.3 °C 53.4 °F /  11.9 °C 29.78 in /  1008.4 hPa East 5.0 mph /  8 km/h 12.0 mph /  19.3 km/h 91 % 0.00 in /  0 mm
11:11 55.7 °F /  13.2 °C 53.4 °F /  11.9 °C 29.78 in /  1008.4 hPa East 6.0 mph /  9.7 km/h 9.0 mph /  14.5 km/h 92 % 0.00 in /  0 mm
11:16 55.5 °F /  13.1 °C 53.5 °F /  11.9 °C 29.78 in /  1008.4 hPa East 5.0 mph /  8 km/h 10.0 mph /  16.1 km/h 93 % 0.00 in /  0 mm
11:21 55.4 °F /  13 °C 53.4 °F /  11.9 °C 29.77 in /  1008 hPa East 6.0 mph /  9.7 km/h 8.0 mph /  12.9 km/h 93 % 0.00 in /  0 mm
11:26 55.2 °F /  12.9 °C 53.5 °F /  11.9 °C 29.77 in /  1008 hPa East 3.0 mph /  4.8 km/h 6.0 mph /  9.7 km/h 94 % 0.00 in /  0 mm
11:31 55.1 °F /  12.8 °C 53.4 °F /  11.9 °C 29.78 in /  1008.4 hPa East 2.0 mph /  3.2 km/h 7.0 mph /  11.3 km/h 94 % 0.00 in /  0 mm
11:36 55.0 °F /  12.8 °C 53.3 °F /  11.8 °C 29.76 in /  1007.7 hPa East 3.0 mph /  4.8 km/h 6.0 mph /  9.7 km/h 94 % 0.00 in /  0 mm
11:41 55.0 °F /  12.8 °C 53.6 °F /  12 °C 29.73 in /  1006.7 hPa East 7.0 mph /  11.3 km/h 9.0 mph /  14.5 km/h 95 % 0.00 in /  0 mm
11:46 55.0 °F /  12.8 °C 53.6 °F /  12 °C 29.73 in /  1006.7 hPa East 6.0 mph /  9.7 km/h 10.0 mph /  16.1 km/h 95 % 0.02 in /  0.51 mm
11:51 54.8 °F /  12.7 °C 53.4 °F /  11.9 °C 29.73 in /  1006.7 hPa East 5.0 mph /  8 km/h 7.0 mph /  11.3 km/h 95 % 0.01 in /  0.25 mm
11:56 54.7 °F /  12.6 °C 53.3 °F /  11.8 °C 29.74 in /  1007 hPa East 3.0 mph /  4.8 km/h 6.0 mph /  9.7 km/h 95 % 0.01 in /  0.25 mm
12:01 54.6 °F /  12.6 °C 53.2 °F /  11.8 °C 29.74 in /  1007 hPa ENE 3.5 mph /  5.6 km/h 4.6 mph /  7.4 km/h 95 % 0.29 in /  7.37 mm
12:06 54.4 °F /  12.4 °C 53.0 °F /  11.7 °C 29.73 in /  1006.7 hPa East 3.7 mph /  6 km/h 8.1 mph /  13 km/h 95 % 0.31 in /  7.87 mm
12:11 53.9 °F /  12.2 °C 52.5 °F /  11.4 °C 29.73 in /  1006.7 hPa ENE 4.3 mph /  6.9 km/h 10.4 mph /  16.7 km/h 95 % 0.33 in /  8.38 mm
12:16 53.6 °F /  12 °C 52.2 °F /  11.2 °C 29.73 in /  1006.7 hPa East 9.6 mph /  15.4 km/h 14.0 mph /  22.5 km/h 95 % 0.34 in /  8.64 mm
12:21 53.3 °F /  11.8 °C 51.9 °F /  11.1 °C 29.70 in /  1005.6 hPa ENE 10.4 mph /  16.7 km/h 14.0 mph /  22.5 km/h 95 % 0.37 in /  9.4 mm
12:26 53.0 °F /  11.7 °C 51.6 °F /  10.9 °C 29.71 in /  1006 hPa SE 4.9 mph /  7.9 km/h 10.4 mph /  16.7 km/h 95 % 0.38 in /  9.65 mm
12:31 52.7 °F /  11.5 °C 51.3 °F /  10.7 °C 29.70 in /  1005.6 hPa ENE 8.0 mph /  12.9 km/h 11.5 mph /  18.5 km/h 95 % 0.40 in /  10.16 mm
12:36 52.4 °F /  11.3 °C 51.0 °F /  10.6 °C 29.69 in /  1005.3 hPa NE 8.0 mph /  12.9 km/h 15.0 mph /  24.1 km/h 95 % 0.42 in /  10.67 mm
12:41 52.3 °F /  11.3 °C 51.2 °F /  10.7 °C 29.69 in /  1005.3 hPa ENE 10.2 mph /  16.4 km/h 14.0 mph /  22.5 km/h 96 % 0.43 in /  10.92 mm
12:46 52.3 °F /  11.3 °C 51.2 °F /  10.7 °C 29.69 in /  1005.3 hPa ENE 10.0 mph /  16.1 km/h 17.3 mph /  27.8 km/h 96 % 0.38 in /  9.65 mm
12:51 52.4 °F /  11.3 °C 51.3 °F /  10.7 °C 29.68 in /  1005 hPa East 3.8 mph /  6.1 km/h 8.1 mph /  13 km/h 96 % 0.34 in /  8.64 mm
12:56 52.8 °F /  11.6 °C 51.7 °F /  10.9 °C 29.68 in /  1005 hPa East 4.8 mph /  7.7 km/h 6.9 mph /  11.1 km/h 96 % 0.32 in /  8.13 mm
13:01 53.6 °F /  12 °C 52.8 °F /  11.6 °C 29.67 in /  1004.6 hPa East 1.6 mph /  2.6 km/h 3.5 mph /  5.6 km/h 97 % 0.30 in /  7.62 mm
13:06 54.8 °F /  12.7 °C 54.0 °F /  12.2 °C 29.66 in /  1004.3 hPa East 4.2 mph /  6.8 km/h 10.4 mph /  16.7 km/h 97 % 0.29 in /  7.37 mm
13:11 56.0 °F /  13.3 °C 55.4 °F /  13 °C 29.65 in /  1003.9 hPa ESE 6.3 mph /  10.1 km/h 13.0 mph /  20.9 km/h 98 % 0.26 in /  6.6 mm
13:16 56.7 °F /  13.7 °C 56.1 °F /  13.4 °C 29.65 in /  1003.9 hPa SE 8.3 mph /  13.4 km/h 14.0 mph /  22.5 km/h 98 % 0.23 in /  5.84 mm
13:21 57.1 °F /  13.9 °C 56.5 °F /  13.6 °C 29.65 in /  1003.9 hPa ESE 5.9 mph /  9.5 km/h 10.4 mph /  16.7 km/h 98 % 0.20 in /  5.08 mm
13:26 57.4 °F /  14.1 °C 56.8 °F /  13.8 °C 29.65 in /  1003.9 hPa ESE 4.0 mph /  6.4 km/h 11.5 mph /  18.5 km/h 98 % 0.17 in /  4.32 mm
13:31 57.7 °F /  14.3 °C 57.1 °F /  13.9 °C 29.64 in /  1003.6 hPa ESE 3.8 mph /  6.1 km/h 8.1 mph /  13 km/h 98 % 0.14 in /  3.56 mm
13:36 57.9 °F /  14.4 °C 57.3 °F /  14.1 °C 29.64 in /  1003.6 hPa ESE 7.6 mph /  12.2 km/h 11.5 mph /  18.5 km/h 98 % 0.12 in /  3.05 mm
13:41 58.0 °F /  14.4 °C 57.4 °F /  14.1 °C 29.64 in /  1003.6 hPa ESE 9.3 mph /  15 km/h 19.6 mph /  31.5 km/h 98 % 0.09 in /  2.29 mm
13:46 58.1 °F /  14.5 °C 57.5 °F /  14.2 °C 29.63 in /  1003.3 hPa SE 8.7 mph /  14 km/h 18.4 mph /  29.6 km/h 98 % 0.08 in /  2.03 mm
13:51 58.1 °F /  14.5 °C 57.5 °F /  14.2 °C 29.63 in /  1003.3 hPa ENE 5.7 mph /  9.2 km/h 15.0 mph /  24.1 km/h 98 % 0.06 in /  1.52 mm
13:56 58.1 °F /  14.5 °C 57.3 °F /  14.1 °C 29.62 in /  1002.9 hPa SE 9.4 mph /  15.1 km/h 18.4 mph /  29.6 km/h 97 % 0.05 in /  1.27 mm
14:01 58.1 °F /  14.5 °C 57.3 °F /  14.1 °C 29.62 in /  1002.9 hPa SE 7.3 mph /  11.7 km/h 12.7 mph /  20.4 km/h 97 % 0.05 in /  1.27 mm
14:06 58.2 °F /  14.6 °C 57.4 °F /  14.1 °C 29.62 in /  1002.9 hPa SSE 8.6 mph /  13.8 km/h 15.0 mph /  24.1 km/h 97 % 0.05 in /  1.27 mm
14:11 58.2 °F /  14.6 °C 57.4 °F /  14.1 °C 29.62 in /  1002.9 hPa SE 8.5 mph /  13.7 km/h 15.0 mph /  24.1 km/h 97 % 0.06 in /  1.52 mm
14:16 58.2 °F /  14.6 °C 57.4 °F /  14.1 °C 29.61 in /  1002.6 hPa ESE 6.0 mph /  9.7 km/h 13.8 mph /  22.2 km/h 97 % 0.07 in /  1.78 mm
14:21 58.4 °F /  14.7 °C 57.8 °F /  14.3 °C 29.63 in /  1003.3 hPa ESE 8.0 mph /  12.9 km/h 15.0 mph /  24.1 km/h 98 % 0.09 in /  2.29 mm
14:26 58.4 °F /  14.7 °C 57.8 °F /  14.3 °C 29.63 in /  1003.3 hPa SE 5.2 mph /  8.4 km/h 12.0 mph /  19.3 km/h 98 % 0.10 in /  2.54 mm
14:31 58.5 °F /  14.7 °C 57.9 °F /  14.4 °C 29.65 in /  1003.9 hPa SW 7.8 mph /  12.6 km/h 17.3 mph /  27.8 km/h 98 % 0.12 in /  3.05 mm
14:36 58.8 °F /  14.9 °C 58.2 °F /  14.6 °C 29.66 in /  1004.3 hPa West 6.3 mph /  10.1 km/h 12.7 mph /  20.4 km/h 98 % 0.14 in /  3.56 mm
14:41 58.9 °F /  14.9 °C 58.3 °F /  14.6 °C 29.65 in /  1003.9 hPa West 4.7 mph /  7.6 km/h 6.9 mph /  11.1 km/h 98 % 0.16 in /  4.06 mm
14:46 58.6 °F /  14.8 °C 57.8 °F /  14.3 °C 29.65 in /  1003.9 hPa SW 5.6 mph /  9 km/h 9.2 mph /  14.8 km/h 97 % 0.16 in /  4.06 mm
14:52 58.4 °F /  14.7 °C 57.6 °F /  14.2 °C 29.64 in /  1003.6 hPa WNW 1.4 mph /  2.3 km/h 3.5 mph /  5.6 km/h 97 % 0.18 in /  4.57 mm
14:57 58.1 °F /  14.5 °C 57.3 °F /  14.1 °C 29.64 in /  1003.6 hPa West 2.1 mph /  3.4 km/h 4.0 mph /  6.4 km/h 97 % 0.19 in /  4.83 mm
15:02 57.9 °F /  14.4 °C 57.1 °F /  13.9 °C 29.64 in /  1003.6 hPa WSW 3.1 mph /  5 km/h 5.8 mph /  9.3 km/h 97 % 0.20 in /  5.08 mm
15:07 57.7 °F /  14.3 °C 56.9 °F /  13.8 °C 29.64 in /  1003.6 hPa West 3.9 mph /  6.3 km/h 6.9 mph /  11.1 km/h 97 % 0.19 in /  4.83 mm
15:12 57.5 °F /  14.2 °C 56.7 °F /  13.7 °C 29.63 in /  1003.3 hPa WNW 3.7 mph /  6 km/h 3.7 mph /  6 km/h 97 % 0.20 in /  5.08 mm
15:17 57.4 °F /  14.1 °C 56.6 °F /  13.7 °C 29.63 in /  1003.3 hPa WNW 1.6 mph /  2.6 km/h 3.5 mph /  5.6 km/h 97 % 0.21 in /  5.33 mm
15:22 57.2 °F /  14 °C 56.4 °F /  13.6 °C 29.62 in /  1002.9 hPa WNW 0.8 mph /  1.3 km/h 3.5 mph /  5.6 km/h 97 % 0.20 in /  5.08 mm
15:27 57.1 °F /  13.9 °C 56.3 °F /  13.5 °C 29.61 in /  1002.6 hPa NNW 0.2 mph /  0.3 km/h 2.3 mph /  3.7 km/h 97 % 0.20 in /  5.08 mm
15:32 57.0 °F /  13.9 °C 56.2 °F /  13.4 °C 29.61 in /  1002.6 hPa NNW 1.1 mph /  1.8 km/h 4.0 mph /  6.4 km/h 97 % 0.21 in /  5.33 mm
15:37 56.8 °F /  13.8 °C 56.0 °F /  13.3 °C 29.60 in /  1002.3 hPa ENE 2.0 mph /  3.2 km/h 3.5 mph /  5.6 km/h 97 % 0.20 in /  5.08 mm
15:42 56.6 °F /  13.7 °C 55.8 °F /  13.2 °C 29.59 in /  1001.9 hPa Calm     97 % 0.20 in /  5.08 mm
15:47 56.4 °F /  13.6 °C 55.6 °F /  13.1 °C 29.59 in /  1001.9 hPa ENE 1.1 mph /  1.8 km/h 3.5 mph /  5.6 km/h 97 % 0.19 in /  4.83 mm
15:52 56.3 °F /  13.5 °C 55.5 °F /  13.1 °C 29.58 in /  1001.6 hPa East 3.6 mph /  5.8 km/h 5.0 mph /  8 km/h 97 % 0.20 in /  5.08 mm
15:57 56.4 °F /  13.6 °C 55.6 °F /  13.1 °C 29.56 in /  1000.9 hPa East 3.8 mph /  6.1 km/h 5.8 mph /  9.3 km/h 97 % 0.19 in /  4.83 mm
16:02 56.6 °F /  13.7 °C 55.8 °F /  13.2 °C 29.56 in /  1000.9 hPa East 2.2 mph /  3.5 km/h 5.0 mph /  8 km/h 97 % 0.19 in /  4.83 mm
16:07 56.8 °F /  13.8 °C 56.0 °F /  13.3 °C 29.58 in /  1001.6 hPa East 0.7 mph /  1.1 km/h 2.3 mph /  3.7 km/h 97 % 0.18 in /  4.57 mm
16:12 56.9 °F /  13.8 °C 56.1 °F /  13.4 °C 29.56 in /  1000.9 hPa East 0.4 mph /  0.6 km/h 2.3 mph /  3.7 km/h 97 % 0.19 in /  4.83 mm
16:17 57.1 °F /  13.9 °C 56.5 °F /  13.6 °C 29.58 in /  1001.6 hPa Calm     98 % 0.18 in /  4.57 mm
16:22 57.2 °F /  14 °C 56.6 °F /  13.7 °C 29.60 in /  1002.3 hPa Calm   1.2 mph /  1.9 km/h 98 % 0.17 in /  4.32 mm
16:27 57.3 °F /  14.1 °C 56.7 °F /  13.7 °C 29.60 in /  1002.3 hPa Calm     98 % 0.17 in /  4.32 mm
16:32 57.6 °F /  14.2 °C 57.0 °F /  13.9 °C 29.60 in /  1002.3 hPa NW 0.2 mph /  0.3 km/h 3.5 mph /  5.6 km/h 98 % 0.17 in /  4.32 mm
16:37 57.7 °F /  14.3 °C 57.1 °F /  13.9 °C 29.60 in /  1002.3 hPa North 0.9 mph /  1.4 km/h 2.3 mph /  3.7 km/h 98 % 0.17 in /  4.32 mm
16:42 57.8 °F /  14.3 °C 57.2 °F /  14 °C 29.59 in /  1001.9 hPa Calm     98 % 0.16 in /  4.06 mm
16:47 57.7 °F /  14.3 °C 57.1 °F /  13.9 °C 29.59 in /  1001.9 hPa North 0.5 mph /  0.8 km/h 2.0 mph /  3.2 km/h 98 % 0.16 in /  4.06 mm
16:52 57.5 °F /  14.2 °C 56.7 °F /  13.7 °C 29.60 in /  1002.3 hPa North 0.4 mph /  0.6 km/h 2.3 mph /  3.7 km/h 97 % 0.15 in /  3.81 mm
16:57 57.3 °F /  14.1 °C 56.5 °F /  13.6 °C 29.60 in /  1002.3 hPa Calm   1.2 mph /  1.9 km/h 97 % 0.16 in /  4.06 mm
17:02 57.2 °F /  14 °C 56.6 °F /  13.7 °C 29.59 in /  1001.9 hPa Calm     98 % 0.15 in /  3.81 mm
17:07 57.1 °F /  13.9 °C 56.5 °F /  13.6 °C 29.59 in /  1001.9 hPa North 1.2 mph /  1.9 km/h 3.5 mph /  5.6 km/h 98 % 0.15 in /  3.81 mm
17:12 57.0 °F /  13.9 °C 56.4 °F /  13.6 °C 29.59 in /  1001.9 hPa Calm     98 % 0.14 in /  3.56 mm
17:17 57.0 °F /  13.9 °C 56.4 °F /  13.6 °C 29.59 in /  1001.9 hPa Calm     98 % 0.14 in /  3.56 mm
17:22 57.1 °F /  13.9 °C 56.5 °F /  13.6 °C 29.58 in /  1001.6 hPa Calm     98 % 0.14 in /  3.56 mm
17:27 57.2 °F /  14 °C 56.6 °F /  13.7 °C 29.59 in /  1001.9 hPa Calm     98 % 0.14 in /  3.56 mm
17:32 57.4 °F /  14.1 °C 56.8 °F /  13.8 °C 29.59 in /  1001.9 hPa Calm   1.2 mph /  1.9 km/h 98 % 0.13 in /  3.3 mm
17:37 57.7 °F /  14.3 °C 57.1 °F /  13.9 °C 29.58 in /  1001.6 hPa Calm   1.2 mph /  1.9 km/h 98 % 0.13 in /  3.3 mm
17:42 58.1 °F /  14.5 °C 57.5 °F /  14.2 °C 29.59 in /  1001.9 hPa Calm   1.2 mph /  1.9 km/h 98 % 0.13 in /  3.3 mm
17:48 58.8 °F /  14.9 °C 58.2 °F /  14.6 °C 29.58 in /  1001.6 hPa SE 0.3 mph /  0.5 km/h 3.5 mph /  5.6 km/h 98 % 0.13 in /  3.3 mm
17:53 59.4 °F /  15.2 °C 58.8 °F /  14.9 °C 29.59 in /  1001.9 hPa SSE 0.8 mph /  1.3 km/h 4.0 mph /  6.4 km/h 98 % 0.13 in /  3.3 mm
17:58 60.0 °F /  15.6 °C 59.4 °F /  15.2 °C 29.58 in /  1001.6 hPa SSE 2.3 mph /  3.7 km/h 4.0 mph /  6.4 km/h 98 % 0.12 in /  3.05 mm
18:03 60.3 °F /  15.7 °C 59.7 °F /  15.4 °C 29.58 in /  1001.6 hPa SE 2.1 mph /  3.4 km/h 4.6 mph /  7.4 km/h 98 % 0.12 in /  3.05 mm
18:08 60.4 °F /  15.8 °C 59.8 °F /  15.4 °C 29.58 in /  1001.6 hPa SE 0.3 mph /  0.5 km/h 2.3 mph /  3.7 km/h 98 % 0.12 in /  3.05 mm
18:10 60.5 °F /  15.8 °C 59.9 °F /  15.5 °C 29.58 in /  1001.6 hPa SE 0.9 mph /  1.4 km/h 3.0 mph /  4.8 km/h 98 % 0.11 in /  2.79 mm
18:15 60.6 °F /  15.9 °C 60.0 °F /  15.6 °C 29.57 in /  1001.2 hPa SE 0.8 mph /  1.3 km/h 3.5 mph /  5.6 km/h 98 % 0.11 in /  2.79 mm
18:20 60.7 °F /  15.9 °C 60.1 °F /  15.6 °C 29.57 in /  1001.2 hPa Calm   1.2 mph /  1.9 km/h 98 % 0.10 in /  2.54 mm
18:25 60.8 °F /  16 °C 60.2 °F /  15.7 °C 29.57 in /  1001.2 hPa SE 0.2 mph /  0.3 km/h 2.0 mph /  3.2 km/h 98 % 0.10 in /  2.54 mm
18:27 60.8 °F /  16 °C 60.2 °F /  15.7 °C 29.57 in /  1001.2 hPa SSE 3.8 mph /  6.1 km/h 5.8 mph /  9.3 km/h 98 % 0.10 in /  2.54 mm
18:32 60.8 °F /  16 °C 60.2 °F /  15.7 °C 29.56 in /  1000.9 hPa SE 1.0 mph /  1.6 km/h 3.5 mph /  5.6 km/h 98 % 0.10 in /  2.54 mm
18:37 60.7 °F /  15.9 °C 60.1 °F /  15.6 °C 29.56 in /  1000.9 hPa SSE 0.3 mph /  0.5 km/h 2.3 mph /  3.7 km/h 98 % 0.10 in /  2.54 mm
18:42 60.6 °F /  15.9 °C 60.0 °F /  15.6 °C 29.55 in /  1000.6 hPa SSE 0.2 mph /  0.3 km/h 1.2 mph /  1.9 km/h 98 % 0.09 in /  2.29 mm
18:47 60.6 °F /  15.9 °C 60.0 °F /  15.6 °C 29.55 in /  1000.6 hPa SE 2.7 mph /  4.3 km/h 5.8 mph /  9.3 km/h 98 % 0.09 in /  2.29 mm
18:52 60.5 °F /  15.8 °C 59.9 °F /  15.5 °C 29.54 in /  1000.2 hPa SE 1.9 mph /  3.1 km/h 4.6 mph /  7.4 km/h 98 % 0.08 in /  2.03 mm
18:57 60.4 °F /  15.8 °C 59.8 °F /  15.4 °C 29.54 in /  1000.2 hPa East 1.8 mph /  2.9 km/h 3.5 mph /  5.6 km/h 98 % 0.07 in /  1.78 mm
19:02 60.3 °F /  15.7 °C 59.7 °F /  15.4 °C 29.54 in /  1000.2 hPa ESE 0.7 mph /  1.1 km/h 2.3 mph /  3.7 km/h 98 % 0.06 in /  1.52 mm
19:07 60.2 °F /  15.7 °C 59.6 °F /  15.3 °C 29.54 in /  1000.2 hPa ESE 0.1 mph /  0.2 km/h 1.2 mph /  1.9 km/h 98 % 0.05 in /  1.27 mm
19:12 60.1 °F /  15.6 °C 59.5 °F /  15.3 °C 29.56 in /  1000.9 hPa South 1.4 mph /  2.3 km/h 3.5 mph /  5.6 km/h 98 % 0.05 in /  1.27 mm
19:17 60.0 °F /  15.6 °C 59.4 °F /  15.2 °C 29.58 in /  1001.6 hPa Calm   2.3 mph /  3.7 km/h 98 % 0.04 in /  1.02 mm
19:22 60.0 °F /  15.6 °C 59.4 °F /  15.2 °C 29.58 in /  1001.6 hPa Calm   1.2 mph /  1.9 km/h 98 % 0.03 in /  0.76 mm
19:27 59.9 °F /  15.5 °C 59.3 °F /  15.2 °C 29.57 in /  1001.2 hPa SSE 0.5 mph /  0.8 km/h 2.3 mph /  3.7 km/h 98 % 0.03 in /  0.76 mm
19:32 59.8 °F /  15.4 °C 59.2 °F /  15.1 °C 29.57 in /  1001.2 hPa SE 1.0 mph /  1.6 km/h 3.0 mph /  4.8 km/h 98 % 0.02 in /  0.51 mm
19:37 59.8 °F /  15.4 °C 59.2 °F /  15.1 °C 29.57 in /  1001.2 hPa WSW 1.2 mph /  1.9 km/h 3.5 mph /  5.6 km/h 98 % 0.01 in /  0.25 mm
19:42 59.7 °F /  15.4 °C 59.1 °F /  15.1 °C 29.58 in /  1001.6 hPa Calm   2.0 mph /  3.2 km/h 98 % 0.01 in /  0.25 mm
19:47 59.6 °F /  15.3 °C 59.0 °F /  15 °C 29.57 in /  1001.2 hPa Calm     98 % 0.00 in /  0 mm
19:52 59.6 °F /  15.3 °C 59.0 °F /  15 °C 29.58 in /  1001.6 hPa Calm   1.0 mph /  1.6 km/h 98 % 0.00 in /  0 mm
19:55 59.5 °F /  15.3 °C 58.9 °F /  14.9 °C 29.58 in /  1001.6 hPa South 2.2 mph /  3.5 km/h 3.5 mph /  5.6 km/h 98 % 0.00 in /  0 mm
20:00 59.4 °F /  15.2 °C 58.8 °F /  14.9 °C 29.57 in /  1001.2 hPa South 0.4 mph /  0.6 km/h 1.2 mph /  1.9 km/h 98 % 0.00 in /  0 mm
20:05 59.4 °F /  15.2 °C 58.8 °F /  14.9 °C 29.57 in /  1001.2 hPa Calm     98 % 0.00 in /  0 mm
20:10 59.3 °F /  15.2 °C 58.7 °F /  14.8 °C 29.57 in /  1001.2 hPa SE 4.0 mph /  6.4 km/h 6.9 mph /  11.1 km/h 98 % 0.00 in /  0 mm
20:15 59.1 °F /  15.1 °C 58.5 °F /  14.7 °C 29.57 in /  1001.2 hPa Calm   2.3 mph /  3.7 km/h 98 % 0.00 in /  0 mm
20:20 59.0 °F /  15 °C 58.4 °F /  14.7 °C 29.56 in /  1000.9 hPa SE 0.5 mph /  0.8 km/h 2.0 mph /  3.2 km/h 98 % 0.00 in /  0 mm
20:25 58.9 °F /  14.9 °C 58.3 °F /  14.6 °C 29.56 in /  1000.9 hPa SE 0.2 mph /  0.3 km/h 1.0 mph /  1.6 km/h 98 % 0.00 in /  0 mm
20:30 58.7 °F /  14.8 °C 58.1 °F /  14.5 °C 29.55 in /  1000.6 hPa SE 0.1 mph /  0.2 km/h 1.2 mph /  1.9 km/h 98 % 0.00 in /  0 mm
20:35 58.6 °F /  14.8 °C 58.0 °F /  14.4 °C 29.55 in /  1000.6 hPa SE 0.3 mph /  0.5 km/h 3.5 mph /  5.6 km/h 98 % 0.00 in /  0 mm
20:36 58.6 °F /  14.8 °C 58.1 °F /  14.5 °C 29.56 in /  1000.9 hPa SE 1.0 mph /  1.6 km/h 4.0 mph /  6.4 km/h 98 % 0.00 in /  0 mm
20:40 58.6 °F /  14.8 °C 58.0 °F /  14.4 °C 29.55 in /  1000.6 hPa SE 2.0 mph /  3.2 km/h 3.5 mph /  5.6 km/h 98 % 0.00 in /  0 mm
20:45 58.5 °F /  14.7 °C 57.9 °F /  14.4 °C 29.56 in /  1000.9 hPa SE 1.0 mph /  1.6 km/h 3.0 mph /  4.8 km/h 98 % 0.00 in /  0 mm
20:50 58.4 °F /  14.7 °C 57.8 °F /  14.3 °C 29.56 in /  1000.9 hPa SE 0.9 mph /  1.4 km/h 3.5 mph /  5.6 km/h 98 % 0.00 in /  0 mm
20:55 58.4 °F /  14.7 °C 57.8 °F /  14.3 °C 29.55 in /  1000.6 hPa ESE 1.0 mph /  1.6 km/h 7.0 mph /  11.3 km/h 98 % 0.00 in /  0 mm
20:56 58.4 °F /  14.7 °C 57.8 °F /  14.3 °C 29.56 in /  1000.9 hPa East 0.3 mph /  0.5 km/h 3.5 mph /  5.6 km/h 98 % 0.00 in /  0 mm
21:01 58.3 °F /  14.6 °C 57.7 °F /  14.3 °C 29.55 in /  1000.6 hPa SE 0.1 mph /  0.2 km/h 1.2 mph /  1.9 km/h 98 % 0.00 in /  0 mm
21:06 58.2 °F /  14.6 °C 57.6 °F /  14.2 °C 29.55 in /  1000.6 hPa Calm   1.2 mph /  1.9 km/h 98 % 0.00 in /  0 mm
21:11 58.2 °F /  14.6 °C 57.6 °F /  14.2 °C 29.55 in /  1000.6 hPa SE 2.0 mph /  3.2 km/h 5.8 mph /  9.3 km/h 98 % 0.00 in /  0 mm
21:16 58.2 °F /  14.6 °C 57.6 °F /  14.2 °C 29.55 in /  1000.6 hPa SE 0.4 mph /  0.6 km/h 3.5 mph /  5.6 km/h 98 % 0.00 in /  0 mm
21:21 58.2 °F /  14.6 °C 57.6 °F /  14.2 °C 29.55 in /  1000.6 hPa SE 3.2 mph /  5.1 km/h 8.1 mph /  13 km/h 98 % 0.00 in /  0 mm
21:26 58.1 °F /  14.5 °C 57.5 °F /  14.2 °C 29.55 in /  1000.6 hPa South 3.7 mph /  6 km/h 8.1 mph /  13 km/h 98 % 0.00 in /  0 mm
21:31 58.2 °F /  14.6 °C 57.6 °F /  14.2 °C 29.55 in /  1000.6 hPa SE 2.3 mph /  3.7 km/h 9.2 mph /  14.8 km/h 98 % 0.00 in /  0 mm
21:36 58.2 °F /  14.6 °C 57.6 °F /  14.2 °C 29.55 in /  1000.6 hPa SE 1.1 mph /  1.8 km/h 3.5 mph /  5.6 km/h 98 % 0.00 in /  0 mm
21:41 58.2 °F /  14.6 °C 57.6 °F /  14.2 °C 29.55 in /  1000.6 hPa SE 2.1 mph /  3.4 km/h 3.5 mph /  5.6 km/h 98 % 0.00 in /  0 mm
21:46 58.3 °F /  14.6 °C 57.7 °F /  14.3 °C 29.55 in /  1000.6 hPa SSE 2.9 mph /  4.7 km/h 4.6 mph /  7.4 km/h 98 % 0.00 in /  0 mm
21:51 58.3 °F /  14.6 °C 57.7 °F /  14.3 °C 29.54 in /  1000.2 hPa SE 4.1 mph /  6.6 km/h 7.0 mph /  11.3 km/h 98 % 0.00 in /  0 mm
21:56 58.3 °F /  14.6 °C 57.7 °F /  14.3 °C 29.55 in /  1000.6 hPa SE 2.0 mph /  3.2 km/h 7.0 mph /  11.3 km/h 98 % 0.00 in /  0 mm
22:01 58.4 °F /  14.7 °C 57.8 °F /  14.3 °C 29.55 in /  1000.6 hPa SE 4.2 mph /  6.8 km/h 5.8 mph /  9.3 km/h 98 % 0.00 in /  0 mm
22:05 58.5 °F /  14.7 °C 57.9 °F /  14.4 °C 29.54 in /  1000.2 hPa ESE 1.0 mph /  1.6 km/h 3.5 mph /  5.6 km/h 98 % 0.00 in /  0 mm
22:10 58.6 °F /  14.8 °C 58.0 °F /  14.4 °C 29.54 in /  1000.2 hPa SE 1.3 mph /  2.1 km/h 3.5 mph /  5.6 km/h 98 % 0.00 in /  0 mm
22:15 58.7 °F /  14.8 °C 58.1 °F /  14.5 °C 29.54 in /  1000.2 hPa SE 5.1 mph /  8.2 km/h 9.2 mph /  14.8 km/h 98 % 0.00 in /  0 mm
22:20 59.1 °F /  15.1 °C 58.5 °F /  14.7 °C 29.53 in /  999.9 hPa ESE 2.7 mph /  4.3 km/h 4.6 mph /  7.4 km/h 98 % 0.00 in /  0 mm
22:25 59.4 °F /  15.2 °C 58.8 °F /  14.9 °C 29.53 in /  999.9 hPa SSE 3.9 mph /  6.3 km/h 6.9 mph /  11.1 km/h 98 % 0.00 in /  0 mm
22:30 59.5 °F /  15.3 °C 58.9 °F /  14.9 °C 29.52 in /  999.5 hPa SSE 1.1 mph /  1.8 km/h 5.8 mph /  9.3 km/h 98 % 0.00 in /  0 mm
22:35 59.5 °F /  15.3 °C 58.9 °F /  14.9 °C 29.52 in /  999.5 hPa SSE 5.8 mph /  9.3 km/h 9.2 mph /  14.8 km/h 98 % 0.00 in /  0 mm
22:40 59.4 °F /  15.2 °C 58.8 °F /  14.9 °C 29.53 in /  999.9 hPa South 5.8 mph /  9.3 km/h 10.4 mph /  16.7 km/h 98 % 0.00 in /  0 mm
22:45 59.4 °F /  15.2 °C 58.8 °F /  14.9 °C 29.53 in /  999.9 hPa SE 4.9 mph /  7.9 km/h 5.8 mph /  9.3 km/h 98 % 0.00 in /  0 mm
22:50 59.4 °F /  15.2 °C 58.8 °F /  14.9 °C 29.53 in /  999.9 hPa SE 7.7 mph /  12.4 km/h 16.1 mph /  25.9 km/h 98 % 0.00 in /  0 mm
22:55 59.5 °F /  15.3 °C 58.9 °F /  14.9 °C 29.52 in /  999.5 hPa SSE 6.5 mph /  10.5 km/h 11.5 mph /  18.5 km/h 98 % 0.00 in /  0 mm
23:00 59.6 °F /  15.3 °C 59.0 °F /  15 °C 29.52 in /  999.5 hPa SE 5.4 mph /  8.7 km/h 9.2 mph /  14.8 km/h 98 % 0.00 in /  0 mm
23:04 59.7 °F /  15.4 °C 59.1 °F /  15.1 °C 29.52 in /  999.5 hPa SE 2.7 mph /  4.3 km/h 9.2 mph /  14.8 km/h 98 % 0.00 in /  0 mm
23:09 59.7 °F /  15.4 °C 59.1 °F /  15.1 °C 29.52 in /  999.5 hPa ESE 5.0 mph /  8 km/h 7.0 mph /  11.3 km/h 98 % 0.00 in /  0 mm
23:14 59.8 °F /  15.4 °C 59.2 °F /  15.1 °C 29.52 in /  999.5 hPa SE 2.3 mph /  3.7 km/h 3.5 mph /  5.6 km/h 98 % 0.00 in /  0 mm
23:19 59.8 °F /  15.4 °C 59.2 °F /  15.1 °C 29.52 in /  999.5 hPa SSE 5.2 mph /  8.4 km/h 8.1 mph /  13 km/h 98 % 0.00 in /  0 mm
23:24 60.0 °F /  15.6 °C 59.4 °F /  15.2 °C 29.52 in /  999.5 hPa SSE 6.3 mph /  10.1 km/h 9.2 mph /  14.8 km/h 98 % 0.00 in /  0 mm
23:29 60.0 °F /  15.6 °C 59.4 °F /  15.2 °C 29.52 in /  999.5 hPa SSE 5.4 mph /  8.7 km/h 7.0 mph /  11.3 km/h 98 % 0.00 in /  0 mm
23:35 60.2 °F /  15.7 °C 59.6 °F /  15.3 °C 29.52 in /  999.5 hPa SE 3.7 mph /  6 km/h 8.1 mph /  13 km/h 98 % 0.00 in /  0 mm
23:40 60.3 °F /  15.7 °C 59.7 °F /  15.4 °C 29.52 in /  999.5 hPa SSE 7.4 mph /  11.9 km/h 11.5 mph /  18.5 km/h 98 % 0.00 in /  0 mm
23:45 60.6 °F /  15.9 °C 60.0 °F /  15.6 °C 29.52 in /  999.5 hPa South 2.9 mph /  4.7 km/h 13.8 mph /  22.2 km/h 98 % 0.00 in /  0 mm
23:50 60.7 °F /  15.9 °C 60.1 °F /  15.6 °C 29.51 in /  999.2 hPa SSE 3.4 mph /  5.5 km/h 11.5 mph /  18.5 km/h 98 % 0.00 in /  0 mm
23:55 60.9 °F /  16.1 °C 60.3 °F /  15.7 °C 29.51 in /  999.2 hPa SSE 3.3 mph /  5.3 km/h 8.1 mph /  13 km/h 98 % 0.00 in /  0 mm
Crab Meadow Weather
Compliments of Weather Underground - 3 mb

Script developed by  Jim McMurry - jmcmurry@mwt.net Adapted for the template by  Wim van der Kuil - Leuven-Template.eu

Weather Terms: Dew Point - A measure of atmospheric moisture. It is the temperature to which air must be cooled in order to reach saturation (assuming pressure and moisture content are constant).